Time;durP1;ratioP1;P1;durP2;ratioP2;P2;SDS_P1;SDS_P2;PMS_P1;PMS_P2;Temp;Humidity;BMP_temperature;BMP_pressure;BME280_temperature;BME280_humidity;BME280_pressure;Samples;Min_cycle;Max_cycle;Signal;HPM_P1;HPM_P2
2023/08/18 00:02:16;;;;;;;4.70;3.90;;;;;;;;;;6156151;23;20402;-60
2023/08/18 00:04:43;;;;;;;4.17;3.87;;;;;;;;;;6156358;23;20430;-60
2023/08/18 00:07:10;;;;;;;4.40;4.00;;;;;;;;;;6156235;23;20525;-60
2023/08/18 00:09:37;;;;;;;4.43;4.13;;;;;;;;;;6156276;23;20494;-60
2023/08/18 00:12:05;;;;;;;4.10;3.80;;;;;;;;;;6155963;23;20435;-60
2023/08/18 00:14:31;;;;;;;5.40;4.23;;;;;;;;;;6156207;23;20407;-60
2023/08/18 00:17:00;;;;;;;4.57;3.97;;;;;;;;;;6156257;23;20494;-60
2023/08/18 00:19:27;;;;;;;4.23;3.90;;;;;;;;;;6156077;23;20442;-60
2023/08/18 00:21:53;;;;;;;4.80;4.40;;;;;;;;;;6156163;23;20461;-60
2023/08/18 00:24:20;;;;;;;4.57;4.27;;;;;;;;;;6156126;23;20497;-60
2023/08/18 00:26:47;;;;;;;4.10;3.80;;;;;;;;;;6156136;23;20977;-60
2023/08/18 00:29:14;;;;;;;4.57;4.17;;;;;;;;;;6156138;23;20413;-60
2023/08/18 00:31:41;;;;;;;4.00;3.70;;;;;;;;;;6156140;23;20788;-61
2023/08/18 00:34:09;;;;;;;5.30;4.70;;;;;;;;;;6156142;23;20493;-60
2023/08/18 00:36:36;;;;;;;6.33;4.40;;;;;;;;;;6156057;23;20497;-60
2023/08/18 00:39:03;;;;;;;4.10;3.80;;;;;;;;;;6156117;23;20494;-60
2023/08/18 00:41:30;;;;;;;5.70;4.37;;;;;;;;;;6156119;23;20494;-60
2023/08/18 00:43:57;;;;;;;3.70;3.37;;;;;;;;;;6155987;23;20407;-60
2023/08/18 00:46:24;;;;;;;5.13;4.33;;;;;;;;;;6155541;23;21020;-60
2023/08/18 00:48:51;;;;;;;4.97;4.37;;;;;;;;;;6156019;23;20798;-60
2023/08/18 00:51:20;;;;;;;4.47;4.10;;;;;;;;;;6155380;23;20552;-60
2023/08/18 00:53:47;;;;;;;4.50;4.20;;;;;;;;;;6155917;23;20485;-60
2023/08/18 00:56:14;;;;;;;6.10;4.40;;;;;;;;;;6155655;23;20435;-60
2023/08/18 00:58:41;;;;;;;4.80;4.40;;;;;;;;;;6156012;23;20761;-60
2023/08/18 01:01:09;;;;;;;7.50;4.43;;;;;;;;;;6155883;23;20437;-60
2023/08/18 01:03:35;;;;;;;4.47;4.10;;;;;;;;;;6155992;23;20494;-60
2023/08/18 01:06:02;;;;;;;4.60;4.30;;;;;;;;;;6155891;23;20486;-60
2023/08/18 01:08:31;;;;;;;5.00;4.67;;;;;;;;;;6155877;23;20457;-60
2023/08/18 01:11:02;;;;;;;5.67;5.17;;;;;;;;;;6155901;23;20493;-60
2023/08/18 01:13:33;;;;;;;6.37;4.97;;;;;;;;;;6165692;23;20402;-60
2023/08/18 01:16:02;;;;;;;5.40;4.70;;;;;;;;;;6165643;23;20748;-60
2023/08/18 01:18:29;;;;;;;5.53;5.00;;;;;;;;;;6155822;23;20875;-60
2023/08/18 01:20:59;;;;;;;5.63;5.23;;;;;;;;;;6155933;23;20716;-60
2023/08/18 01:23:38;;;;;;;6.87;6.10;;;;;;;;;;6156654;23;20434;-60
2023/08/18 01:26:05;;;;;;;6.03;5.47;;;;;;;;;;6167479;23;20398;-60
2023/08/18 01:28:32;;;;;;;5.67;5.20;;;;;;;;;;6157752;23;20493;-60
2023/08/18 01:30:59;;;;;;;8.33;6.27;;;;;;;;;;6157833;23;20406;-60
2023/08/18 01:33:30;;;;;;;6.33;5.70;;;;;;;;;;6157686;23;20407;-60
2023/08/18 01:36:00;;;;;;;6.57;5.87;;;;;;;;;;6167043;23;20954;-60
2023/08/18 01:38:28;;;;;;;6.07;5.67;;;;;;;;;;6167352;23;20486;-60
2023/08/18 01:40:57;;;;;;;6.43;5.90;;;;;;;;;;6157530;23;20438;-60
2023/08/18 01:43:26;;;;;;;6.67;5.90;;;;;;;;;;6157559;23;20494;-60
2023/08/18 01:45:53;;;;;;;6.67;6.00;;;;;;;;;;6157507;23;20731;-60
2023/08/18 01:48:20;;;;;;;6.60;5.97;;;;;;;;;;6157465;23;20517;-60
2023/08/18 01:50:46;;;;;;;6.43;5.97;;;;;;;;;;6157074;23;20554;-60
2023/08/18 01:53:13;;;;;;;6.73;6.30;;;;;;;;;;6157528;23;20616;-60
2023/08/18 01:55:42;;;;;;;6.70;5.97;;;;;;;;;;6157593;23;20525;-60
2023/08/18 01:58:10;;;;;;;8.73;6.67;;;;;;;;;;6157053;23;20406;-60
2023/08/18 02:00:37;;;;;;;6.60;6.20;;;;;;;;;;6157078;23;20990;-60
2023/08/18 02:03:04;;;;;;;6.10;5.80;;;;;;;;;;6157442;23;20490;-60
2023/08/18 02:05:31;;;;;;;6.90;6.30;;;;;;;;;;6157438;23;20468;-60
2023/08/18 02:07:58;;;;;;;6.80;6.20;;;;;;;;;;6157225;23;20442;-60
2023/08/18 02:10:25;;;;;;;6.13;5.63;;;;;;;;;;6157385;23;20407;-60
2023/08/18 02:12:52;;;;;;;7.00;6.47;;;;;;;;;;6157382;23;20899;-60
2023/08/18 02:15:20;;;;;;;6.93;6.33;;;;;;;;;;6157350;23;20514;-60
2023/08/18 02:17:47;;;;;;;6.97;6.10;;;;;;;;;;6157221;23;20502;-60
2023/08/18 02:20:14;;;;;;;6.67;6.10;;;;;;;;;;6157286;23;20582;-60
2023/08/18 02:22:41;;;;;;;7.20;6.60;;;;;;;;;;6157251;23;20438;-60
2023/08/18 02:25:08;;;;;;;6.10;5.70;;;;;;;;;;6157214;23;20490;-60
2023/08/18 02:27:35;;;;;;;7.03;6.43;;;;;;;;;;6157077;23;20557;-60
2023/08/18 02:30:03;;;;;;;7.03;6.53;;;;;;;;;;6157274;23;20430;-60
2023/08/18 02:32:31;;;;;;;7.13;6.63;;;;;;;;;;6157093;23;20403;-60
2023/08/18 02:34:58;;;;;;;6.90;6.13;;;;;;;;;;6156807;23;20490;-60
2023/08/18 02:37:25;;;;;;;6.60;6.00;;;;;;;;;;6157206;23;20493;-60
2023/08/18 02:39:52;;;;;;;7.53;6.83;;;;;;;;;;6157072;23;20771;-60
2023/08/18 02:42:19;;;;;;;6.33;5.90;;;;;;;;;;6157180;23;20502;-60
2023/08/18 02:44:47;;;;;;;7.17;6.47;;;;;;;;;;6157056;23;20407;-60
2023/08/18 02:47:14;;;;;;;6.43;5.93;;;;;;;;;;6156988;23;20533;-60
2023/08/18 02:49:42;;;;;;;7.07;6.47;;;;;;;;;;6156697;23;20485;-60
2023/08/18 02:52:10;;;;;;;7.67;6.47;;;;;;;;;;6166730;23;20431;-60
2023/08/18 02:54:37;;;;;;;6.30;5.73;;;;;;;;;;6156970;23;20826;-60
2023/08/18 02:57:04;;;;;;;7.60;6.90;;;;;;;;;;6156916;23;20788;-60
2023/08/18 02:59:30;;;;;;;7.43;6.77;;;;;;;;;;6156870;23;20485;-60
2023/08/18 03:01:58;;;;;;;7.93;6.93;;;;;;;;;;6156917;23;20490;-60
2023/08/18 03:04:25;;;;;;;7.33;6.80;;;;;;;;;;6156807;23;20409;-60
2023/08/18 03:06:53;;;;;;;7.27;6.67;;;;;;;;;;6156750;23;20791;-60
2023/08/18 03:09:20;;;;;;;7.03;6.43;;;;;;;;;;6156689;23;20414;-60
2023/08/18 03:11:47;;;;;;;8.83;7.30;;;;;;;;;;6156803;23;20407;-60
2023/08/18 03:14:14;;;;;;;6.53;6.03;;;;;;;;;;6156776;23;20494;-60
2023/08/18 03:16:42;;;;;;;7.70;7.13;;;;;;;;;;6156674;23;20489;-60
2023/08/18 03:19:09;;;;;;;6.00;5.60;;;;;;;;;;6156593;23;20449;-60
2023/08/18 03:21:36;;;;;;;6.60;6.10;;;;;;;;;;6156787;23;20494;-60
2023/08/18 03:24:04;;;;;;;7.93;6.73;;;;;;;;;;6156305;23;20912;-60
2023/08/18 03:26:31;;;;;;;7.30;6.60;;;;;;;;;;6156492;23;20414;-60
2023/08/18 03:28:58;;;;;;;7.43;6.73;;;;;;;;;;6156436;23;20520;-60
2023/08/18 03:31:25;;;;;;;7.77;6.93;;;;;;;;;;6156523;23;20498;-60
2023/08/18 03:33:52;;;;;;;7.50;6.80;;;;;;;;;;6156432;23;20411;-60
2023/08/18 03:36:20;;;;;;;7.30;6.80;;;;;;;;;;6156406;23;20407;-60
2023/08/18 03:38:47;;;;;;;9.60;6.90;;;;;;;;;;6156452;23;20407;-60
2023/08/18 03:41:15;;;;;;;7.47;7.00;;;;;;;;;;6156581;23;20796;-60
2023/08/18 03:43:42;;;;;;;10.40;6.97;;;;;;;;;;6156339;23;20411;-60
2023/08/18 03:46:21;;;;;;;8.40;7.70;;;;;;;;;;6155990;23;20438;-60
2023/08/18 03:48:48;;;;;;;6.53;6.03;;;;;;;;;;6165985;23;20462;-60
2023/08/18 03:51:15;;;;;;;7.20;6.57;;;;;;;;;;6155985;23;20522;-60
2023/08/18 03:53:43;;;;;;;8.60;7.60;;;;;;;;;;6156293;23;20457;-60
2023/08/18 03:56:10;;;;;;;7.47;6.87;;;;;;;;;;6156235;23;20411;-60
2023/08/18 03:58:38;;;;;;;7.20;6.70;;;;;;;;;;6156313;23;20438;-60
2023/08/18 04:01:06;;;;;;;7.60;6.83;;;;;;;;;;6156154;23;20791;-60
2023/08/18 04:03:33;;;;;;;7.47;6.87;;;;;;;;;;6156258;23;20407;-60
2023/08/18 04:06:00;;;;;;;8.10;7.40;;;;;;;;;;6156230;23;20491;-60
2023/08/18 04:08:27;;;;;;;9.10;8.40;;;;;;;;;;6156130;23;20474;-60
2023/08/18 04:10:54;;;;;;;8.73;7.87;;;;;;;;;;6156258;23;20441;-60
2023/08/18 04:13:20;;;;;;;10.10;7.40;;;;;;;;;;6156152;23;20490;-60
2023/08/18 04:15:49;;;;;;;9.30;7.33;;;;;;;;;;6156229;23;20461;-60
2023/08/18 04:18:16;;;;;;;8.93;8.13;;;;;;;;;;6155986;23;20498;-60
2023/08/18 04:20:42;;;;;;;7.33;6.70;;;;;;;;;;6156209;23;20438;-60
2023/08/18 04:23:09;;;;;;;8.83;7.90;;;;;;;;;;6156143;23;20804;-60
2023/08/18 04:25:36;;;;;;;8.77;7.70;;;;;;;;;;6156072;23;20482;-60
2023/08/18 04:28:03;;;;;;;8.47;7.67;;;;;;;;;;6155960;23;20525;-60
2023/08/18 04:30:30;;;;;;;7.87;7.27;;;;;;;;;;6156148;23;20411;-60
2023/08/18 04:32:58;;;;;;;8.20;7.50;;;;;;;;;;6155988;23;20494;-60
2023/08/18 04:35:25;;;;;;;7.87;7.37;;;;;;;;;;6155969;23;20493;-60
2023/08/18 04:37:53;;;;;;;8.73;8.13;;;;;;;;;;6156043;23;20411;-60
2023/08/18 04:40:20;;;;;;;10.73;9.73;;;;;;;;;;6156105;23;20482;-60
2023/08/18 04:42:48;;;;;;;10.50;7.53;;;;;;;;;;6155959;23;20490;-60
2023/08/18 04:45:15;;;;;;;8.53;7.83;;;;;;;;;;6156068;23;20434;-60
2023/08/18 04:47:44;;;;;;;9.83;9.00;;;;;;;;;;6155903;23;20431;-60
2023/08/18 04:50:12;;;;;;;13.40;8.90;;;;;;;;;;6155462;23;20816;-60
2023/08/18 04:52:39;;;;;;;9.40;8.43;;;;;;;;;;6155944;23;20493;-61
2023/08/18 04:55:06;;;;;;;9.00;7.77;;;;;;;;;;6155970;23;20493;-60
2023/08/18 04:57:33;;;;;;;9.10;8.40;;;;;;;;;;6156182;23;20411;-60
2023/08/18 05:00:00;;;;;;;8.37;7.53;;;;;;;;;;6158008;23;20431;-60
2023/08/18 05:02:27;;;;;;;9.10;7.23;;;;;;;;;;6157616;23;20434;-60
2023/08/18 05:04:54;;;;;;;10.80;7.97;;;;;;;;;;6158002;23;20493;-60
2023/08/18 05:07:22;;;;;;;9.10;8.23;;;;;;;;;;6157707;23;20478;-60
2023/08/18 05:09:49;;;;;;;8.63;7.93;;;;;;;;;;6157666;23;20407;-60
2023/08/18 05:12:16;;;;;;;8.83;8.13;;;;;;;;;;6157891;23;20438;-60
2023/08/18 05:14:43;;;;;;;9.13;8.20;;;;;;;;;;6157848;23;20407;-61
2023/08/18 05:17:10;;;;;;;8.70;7.77;;;;;;;;;;6157390;23;20970;-60
2023/08/18 05:19:37;;;;;;;8.30;7.50;;;;;;;;;;6157730;23;20494;-61
2023/08/18 05:22:05;;;;;;;7.70;7.00;;;;;;;;;;6157765;23;20438;-61
2023/08/18 05:24:33;;;;;;;9.03;8.23;;;;;;;;;;6157596;23;20486;-61
2023/08/18 05:27:00;;;;;;;7.80;7.27;;;;;;;;;;6157602;23;20485;-60
2023/08/18 05:29:27;;;;;;;8.90;8.13;;;;;;;;;;6157288;23;20988;-60
2023/08/18 05:31:54;;;;;;;9.73;8.93;;;;;;;;;;6157649;23;20493;-61
2023/08/18 05:34:21;;;;;;;9.33;8.63;;;;;;;;;;6157638;23;20440;-61
2023/08/18 05:36:48;;;;;;;9.47;8.60;;;;;;;;;;6157557;23;20481;-60
2023/08/18 05:39:15;;;;;;;8.47;7.73;;;;;;;;;;6157564;23;20975;-60
2023/08/18 05:41:43;;;;;;;9.30;8.50;;;;;;;;;;6157545;23;20509;-60
2023/08/18 05:44:10;;;;;;;8.57;7.87;;;;;;;;;;6157369;23;20498;-60
2023/08/18 05:46:37;;;;;;;10.13;8.67;;;;;;;;;;6157450;23;20483;-61
2023/08/18 05:49:04;;;;;;;8.77;8.17;;;;;;;;;;6157043;23;20529;-61
2023/08/18 05:51:31;;;;;;;13.03;8.63;;;;;;;;;;6166660;23;20883;-61
2023/08/18 05:53:58;;;;;;;8.97;8.03;;;;;;;;;;6157373;23;20494;-60
2023/08/18 05:56:26;;;;;;;8.97;8.23;;;;;;;;;;6157250;23;20895;-60
2023/08/18 05:58:54;;;;;;;9.40;8.50;;;;;;;;;;6157283;23;20403;-61
2023/08/18 06:01:21;;;;;;;9.53;8.83;;;;;;;;;;6157224;23;20415;-60
2023/08/18 06:03:48;;;;;;;9.03;8.20;;;;;;;;;;6157301;23;20487;-60
2023/08/18 06:06:14;;;;;;;16.93;8.80;;;;;;;;;;6157431;23;20490;-61
2023/08/18 06:08:41;;;;;;;8.23;7.60;;;;;;;;;;6156951;23;20915;-61
2023/08/18 06:11:08;;;;;;;9.00;8.30;;;;;;;;;;6156852;23;20406;-61
2023/08/18 06:13:35;;;;;;;9.77;9.00;;;;;;;;;;6156815;23;20445;-61
2023/08/18 06:16:06;;;;;;;9.67;8.77;;;;;;;;;;6157180;23;20493;-61
2023/08/18 06:18:34;;;;;;;9.30;8.50;;;;;;;;;;6156675;23;20962;-61
2023/08/18 06:21:01;;;;;;;9.80;8.87;;;;;;;;;;6156765;23;20879;-61
2023/08/18 06:23:28;;;;;;;8.97;7.87;;;;;;;;;;6157405;23;20465;-61
2023/08/18 06:25:58;;;;;;;8.50;7.80;;;;;;;;;;6157118;23;20513;-61
2023/08/18 06:28:26;;;;;;;8.80;8.10;;;;;;;;;;6156891;23;20467;-61
2023/08/18 06:30:53;;;;;;;8.83;7.93;;;;;;;;;;6156515;23;20899;-61
2023/08/18 06:33:22;;;;;;;9.67;8.77;;;;;;;;;;6156995;23;20406;-61
2023/08/18 06:35:49;;;;;;;9.17;8.37;;;;;;;;;;6156859;23;20407;-61
2023/08/18 06:38:17;;;;;;;8.80;8.10;;;;;;;;;;6156956;23;20735;-61
2023/08/18 06:40:45;;;;;;;9.40;8.57;;;;;;;;;;6156884;23;20438;-60
2023/08/18 06:43:12;;;;;;;8.50;7.80;;;;;;;;;;6156839;23;20414;-61
2023/08/18 06:45:39;;;;;;;8.70;8.00;;;;;;;;;;6156799;23;20490;-61
2023/08/18 06:48:06;;;;;;;9.10;8.30;;;;;;;;;;6156697;23;20783;-60
2023/08/18 06:50:34;;;;;;;8.00;7.30;;;;;;;;;;6156350;23;20505;-61
2023/08/18 06:53:01;;;;;;;8.80;8.00;;;;;;;;;;6156752;23;20494;-61
2023/08/18 06:55:28;;;;;;;8.80;8.00;;;;;;;;;;6156802;23;20485;-61
2023/08/18 06:57:55;;;;;;;8.40;7.63;;;;;;;;;;6156722;23;20410;-61
2023/08/18 07:00:22;;;;;;;7.90;7.20;;;;;;;;;;6156743;23;20490;-60
2023/08/18 07:02:51;;;;;;;7.70;7.10;;;;;;;;;;6156876;23;20498;-61
2023/08/18 07:05:18;;;;;;;7.47;6.87;;;;;;;;;;6156629;23;20914;-61
2023/08/18 07:07:46;;;;;;;7.80;7.30;;;;;;;;;;6156517;23;20426;-61
2023/08/18 07:10:13;;;;;;;8.73;8.13;;;;;;;;;;6156439;23;20438;-61
2023/08/18 07:12:40;;;;;;;7.73;7.23;;;;;;;;;;6156665;23;20519;-61
2023/08/18 07:15:07;;;;;;;6.73;6.23;;;;;;;;;;6156652;23;20458;-61
2023/08/18 07:17:34;;;;;;;7.40;6.80;;;;;;;;;;6156446;23;20491;-61
2023/08/18 07:20:03;;;;;;;6.63;6.23;;;;;;;;;;6156457;23;20498;-62
2023/08/18 07:22:30;;;;;;;6.63;6.13;;;;;;;;;;6156178;23;20445;-61
2023/08/18 07:24:58;;;;;;;7.20;6.60;;;;;;;;;;6156310;23;20438;-61
2023/08/18 07:27:25;;;;;;;7.67;7.10;;;;;;;;;;6156525;23;20442;-61
2023/08/18 07:29:52;;;;;;;8.03;7.43;;;;;;;;;;6156450;23;20803;-61
2023/08/18 07:32:19;;;;;;;7.73;6.90;;;;;;;;;;6156495;23;20443;-61
2023/08/18 07:34:46;;;;;;;8.00;7.30;;;;;;;;;;6156553;23;20777;-61
2023/08/18 07:37:14;;;;;;;7.10;6.60;;;;;;;;;;6156444;23;20399;-61
2023/08/18 07:39:41;;;;;;;7.57;6.83;;;;;;;;;;6156308;23;20407;-61
2023/08/18 07:42:10;;;;;;;7.43;6.83;;;;;;;;;;6156077;23;20489;-61
2023/08/18 07:44:37;;;;;;;7.30;6.70;;;;;;;;;;6156375;23;20402;-60
2023/08/18 07:47:04;;;;;;;6.93;6.43;;;;;;;;;;6156014;23;20404;-61
2023/08/18 07:49:31;;;;;;;6.57;6.10;;;;;;;;;;6156042;23;20482;-61
2023/08/18 07:51:58;;;;;;;6.53;6.07;;;;;;;;;;6166093;23;20478;-61
2023/08/18 07:54:27;;;;;;;6.53;6.13;;;;;;;;;;6156316;23;20413;-61
2023/08/18 07:56:54;;;;;;;6.20;5.70;;;;;;;;;;6156247;23;20498;-61
2023/08/18 07:59:23;;;;;;;7.23;6.73;;;;;;;;;;6156194;23;20693;-61
2023/08/18 08:01:50;;;;;;;6.63;6.13;;;;;;;;;;6156058;23;20493;-61
2023/08/18 08:04:18;;;;;;;6.73;6.30;;;;;;;;;;6156265;23;20450;-61
2023/08/18 08:06:45;;;;;;;5.77;5.30;;;;;;;;;;6156225;23;20486;-61
2023/08/18 08:09:12;;;;;;;5.60;5.10;;;;;;;;;;6156105;23;20538;-61
2023/08/18 08:11:39;;;;;;;6.33;5.20;;;;;;;;;;6155904;23;20973;-61
2023/08/18 08:14:06;;;;;;;6.17;5.67;;;;;;;;;;6156576;23;20438;-61
2023/08/18 08:16:35;;;;;;;5.80;5.40;;;;;;;;;;6156075;23;20417;-61
2023/08/18 08:19:03;;;;;;;7.67;6.37;;;;;;;;;;6155957;23;20407;-61
2023/08/18 08:21:32;;;;;;;6.20;5.80;;;;;;;;;;6156142;23;20407;-61
2023/08/18 08:23:58;;;;;;;5.47;5.10;;;;;;;;;;6155950;23;20418;-60
2023/08/18 08:26:25;;;;;;;5.63;5.23;;;;;;;;;;6155962;23;20483;-61
2023/08/18 08:28:52;;;;;;;5.43;5.13;;;;;;;;;;6155809;23;20491;-61
2023/08/18 08:31:19;;;;;;;4.87;4.57;;;;;;;;;;6155935;23;20493;-61
2023/08/18 08:33:47;;;;;;;4.40;4.00;;;;;;;;;;6155512;23;20753;-61
2023/08/18 08:36:14;;;;;;;4.40;4.10;;;;;;;;;;6155898;23;20399;-61
2023/08/18 08:38:41;;;;;;;4.50;4.27;;;;;;;;;;6155967;23;20494;-61
2023/08/18 08:41:08;;;;;;;3.90;3.60;;;;;;;;;;6156005;23;20481;-60
2023/08/18 08:43:35;;;;;;;4.63;4.23;;;;;;;;;;6155851;23;20441;-59
2023/08/18 08:46:02;;;;;;;4.93;4.53;;;;;;;;;;6155835;23;20489;-61
2023/08/18 08:48:32;;;;;;;4.63;4.33;;;;;;;;;;6156034;23;20816;-61
2023/08/18 08:51:04;;;;;;;5.43;5.00;;;;;;;;;;6155310;23;20450;-61
2023/08/18 08:53:33;;;;;;;5.00;4.70;;;;;;;;;;6165619;23;20402;-60
2023/08/18 08:56:01;;;;;;;5.50;5.20;;;;;;;;;;6155667;23;20493;-60
2023/08/18 08:58:33;;;;;;;5.53;5.00;;;;;;;;;;6155808;23;20523;-61
2023/08/18 09:01:01;;;;;;;5.83;5.33;;;;;;;;;;6165693;23;20499;-61
2023/08/18 09:03:30;;;;;;;4.70;4.40;;;;;;;;;;6155917;23;20494;-61
2023/08/18 09:05:57;;;;;;;6.07;4.73;;;;;;;;;;6155753;23;20444;-60
2023/08/18 09:08:26;;;;;;;5.00;4.70;;;;;;;;;;6155369;23;20470;-63
2023/08/18 09:10:53;;;;;;;6.00;5.50;;;;;;;;;;6155824;23;20521;-62
2023/08/18 09:13:20;;;;;;;4.80;4.50;;;;;;;;;;6155901;23;20489;-62
2023/08/18 09:15:47;;;;;;;6.53;5.10;;;;;;;;;;6155647;23;20438;-62
2023/08/18 09:18:15;;;;;;;5.70;5.20;;;;;;;;;;6155703;23;20407;-62
2023/08/18 09:20:42;;;;;;;5.80;4.60;;;;;;;;;;6155836;23;20441;-62
2023/08/18 09:23:09;;;;;;;5.03;4.63;;;;;;;;;;6155875;23;20411;-62
2023/08/18 09:25:39;;;;;;;5.00;4.70;;;;;;;;;;6155911;23;20946;-63
2023/08/18 09:28:06;;;;;;;5.07;4.73;;;;;;;;;;6155699;23;20497;-62
2023/08/18 09:30:33;;;;;;;4.70;4.40;;;;;;;;;;6155831;23;20838;-61
2023/08/18 09:33:01;;;;;;;4.60;4.30;;;;;;;;;;6155643;23;20502;-61
2023/08/18 09:35:32;;;;;;;6.40;3.80;;;;;;;;;;6155558;23;20403;-61
2023/08/18 09:37:59;;;;;;;4.80;4.50;;;;;;;;;;6165373;23;20391;-62
2023/08/18 09:40:27;;;;;;;3.93;3.67;;;;;;;;;;6155915;23;20454;-62
2023/08/18 09:42:55;;;;;;;3.43;3.20;;;;;;;;;;6155692;23;20779;-61
2023/08/18 09:45:23;;;;;;;3.67;3.43;;;;;;;;;;6157302;23;20799;-61
2023/08/18 09:47:54;;;;;;;4.40;4.20;;;;;;;;;;6157511;23;20407;-61
2023/08/18 09:50:23;;;;;;;4.50;4.20;;;;;;;;;;6160803;23;20853;-61
2023/08/18 09:52:53;;;;;;;4.40;4.10;;;;;;;;;;6157264;23;20879;-61
2023/08/18 09:55:21;;;;;;;3.40;3.20;;;;;;;;;;6167192;23;20716;-61
2023/08/18 09:57:51;;;;;;;3.90;3.70;;;;;;;;;;6156956;23;20912;-61
2023/08/18 10:00:21;;;;;;;4.10;3.67;;;;;;;;;;6156887;23;20438;-61
2023/08/18 10:02:48;;;;;;;4.33;4.13;;;;;;;;;;6166935;23;20409;-61
2023/08/18 10:05:15;;;;;;;4.10;3.63;;;;;;;;;;6157263;23;20495;-62
2023/08/18 10:07:42;;;;;;;4.30;3.90;;;;;;;;;;6157137;23;20413;-61
2023/08/18 10:10:09;;;;;;;4.37;4.07;;;;;;;;;;6156807;23;20976;-61
2023/08/18 10:12:36;;;;;;;3.87;3.60;;;;;;;;;;6157274;23;20465;-61
2023/08/18 10:15:03;;;;;;;3.87;3.53;;;;;;;;;;6157723;23;20494;-61
2023/08/18 10:17:32;;;;;;;4.37;4.07;;;;;;;;;;6157180;23;20442;-61
2023/08/18 10:20:00;;;;;;;4.37;4.00;;;;;;;;;;6157115;23;20830;-62
2023/08/18 10:22:28;;;;;;;5.20;4.50;;;;;;;;;;6157449;23;20407;-61
2023/08/18 10:24:55;;;;;;;3.97;3.77;;;;;;;;;;6157100;23;20457;-61
2023/08/18 10:27:39;;;;;;;4.77;4.33;;;;;;;;;;6157161;23;20494;-61
2023/08/18 10:30:24;;;;;;;4.87;4.57;;;;;;;;;;6166706;23;20743;-61
2023/08/18 10:32:54;;;;;;;4.77;4.37;;;;;;;;;;6157011;23;20494;-61
2023/08/18 10:35:21;;;;;;;4.63;4.33;;;;;;;;;;6156989;23;20771;-61
2023/08/18 10:37:51;;;;;;;4.10;3.90;;;;;;;;;;6157076;23;20430;-61
2023/08/18 10:40:29;;;;;;;5.07;4.70;;;;;;;;;;6157007;23;20498;-61
2023/08/18 10:42:59;;;;;;;4.13;3.83;;;;;;;;;;6156805;23;20471;-61
2023/08/18 10:45:26;;;;;;;5.33;4.93;;;;;;;;;;6156837;23;20409;-61
2023/08/18 10:47:57;;;;;;;4.80;4.40;;;;;;;;;;6156828;23;20403;-61
2023/08/18 10:50:24;;;;;;;4.50;4.10;;;;;;;;;;6160039;23;20474;-62
2023/08/18 10:52:52;;;;;;;5.70;4.40;;;;;;;;;;6156894;23;20449;-61
2023/08/18 10:55:19;;;;;;;4.57;4.27;;;;;;;;;;6156452;23;20411;-61
2023/08/18 10:57:47;;;;;;;4.40;4.10;;;;;;;;;;6156498;23;20802;-61
2023/08/18 11:00:17;;;;;;;4.37;4.13;;;;;;;;;;6156601;23;20454;-62
2023/08/18 11:02:45;;;;;;;4.53;4.30;;;;;;;;;;6166512;23;20403;-62
2023/08/18 11:05:13;;;;;;;5.80;5.40;;;;;;;;;;6156821;23;20477;-62
2023/08/18 11:07:40;;;;;;;4.80;4.57;;;;;;;;;;6156691;23;20414;-62
2023/08/18 11:10:15;;;;;;;5.17;4.87;;;;;;;;;;6156724;23;20522;-62
2023/08/18 11:12:42;;;;;;;5.70;5.20;;;;;;;;;;6166468;23;20395;-63
2023/08/18 11:15:10;;;;;;;4.10;3.90;;;;;;;;;;6156634;23;20414;-62
2023/08/18 11:17:37;;;;;;;5.30;4.90;;;;;;;;;;6156329;23;20909;-62
2023/08/18 11:20:06;;;;;;;5.30;4.90;;;;;;;;;;6156683;23;20487;-62
2023/08/18 11:22:35;;;;;;;5.20;4.80;;;;;;;;;;6156450;23;20407;-62
2023/08/18 11:25:03;;;;;;;5.13;4.77;;;;;;;;;;6156475;23;20490;-62
2023/08/18 11:27:30;;;;;;;5.67;5.27;;;;;;;;;;6156557;23;20736;-62
2023/08/18 11:29:58;;;;;;;5.90;5.50;;;;;;;;;;6156455;23;20802;-62
2023/08/18 11:32:25;;;;;;;5.80;5.30;;;;;;;;;;6156423;23;20490;-62
2023/08/18 11:34:52;;;;;;;5.67;5.27;;;;;;;;;;6156581;23;20771;-62
2023/08/18 11:37:20;;;;;;;5.83;5.33;;;;;;;;;;6156466;23;20485;-62
2023/08/18 11:39:49;;;;;;;6.00;5.50;;;;;;;;;;6156364;23;20796;-62
2023/08/18 11:42:17;;;;;;;5.93;5.53;;;;;;;;;;6156592;23;20493;-62
2023/08/18 11:44:44;;;;;;;7.10;6.10;;;;;;;;;;6156401;23;20411;-62
2023/08/18 11:47:12;;;;;;;5.83;5.50;;;;;;;;;;6156369;23;20407;-62
2023/08/18 11:49:39;;;;;;;6.20;5.70;;;;;;;;;;6156184;23;20442;-62
2023/08/18 11:52:06;;;;;;;5.50;5.10;;;;;;;;;;6156319;23;20443;-62
2023/08/18 11:54:34;;;;;;;8.83;5.53;;;;;;;;;;6156212;23;20482;-62
2023/08/18 11:57:02;;;;;;;6.03;5.63;;;;;;;;;;6156455;23;20407;-62
2023/08/18 11:59:29;;;;;;;6.27;5.63;;;;;;;;;;6156229;23;20414;-62
2023/08/18 12:01:57;;;;;;;5.70;5.40;;;;;;;;;;6155884;23;20962;-62
2023/08/18 12:04:25;;;;;;;5.60;5.13;;;;;;;;;;6155876;23;20994;-62
2023/08/18 12:06:52;;;;;;;5.23;4.93;;;;;;;;;;6156047;23;20724;-62
2023/08/18 12:09:19;;;;;;;5.80;5.50;;;;;;;;;;6156065;23;20407;-62
2023/08/18 12:11:45;;;;;;;6.20;5.80;;;;;;;;;;6156086;23;20533;-62
2023/08/18 12:14:14;;;;;;;6.03;5.53;;;;;;;;;;6156118;23;20435;-62
2023/08/18 12:16:41;;;;;;;5.97;5.57;;;;;;;;;;6155960;23;20498;-62
2023/08/18 12:19:08;;;;;;;6.10;5.70;;;;;;;;;;6156507;23;20411;-62
2023/08/18 12:21:36;;;;;;;6.03;5.63;;;;;;;;;;6156104;23;20490;-62
2023/08/18 12:24:04;;;;;;;5.93;5.60;;;;;;;;;;6156025;23;20415;-62
2023/08/18 12:26:31;;;;;;;6.20;5.80;;;;;;;;;;6156104;23;20494;-62
2023/08/18 12:28:58;;;;;;;5.43;5.03;;;;;;;;;;6156424;23;20498;-62
2023/08/18 12:31:26;;;;;;;5.60;5.10;;;;;;;;;;6156037;23;20537;-62
2023/08/18 12:33:53;;;;;;;5.83;5.37;;;;;;;;;;6155750;23;20411;-62
2023/08/18 12:36:20;;;;;;;6.00;5.60;;;;;;;;;;6155928;23;20489;-62
2023/08/18 12:38:47;;;;;;;6.83;5.97;;;;;;;;;;6155903;23;20438;-62
2023/08/18 12:41:14;;;;;;;5.57;5.27;;;;;;;;;;6155985;23;20965;-62
2023/08/18 12:43:41;;;;;;;5.40;5.10;;;;;;;;;;6156060;23;20748;-62
2023/08/18 12:46:08;;;;;;;6.47;5.97;;;;;;;;;;6156400;23;20485;-62
2023/08/18 12:48:37;;;;;;;5.43;5.13;;;;;;;;;;6155870;23;20490;-62
2023/08/18 12:51:04;;;;;;;5.93;5.53;;;;;;;;;;6155348;23;20450;-62
2023/08/18 12:53:31;;;;;;;7.53;5.90;;;;;;;;;;6155848;23;20445;-62
2023/08/18 12:55:58;;;;;;;5.70;5.40;;;;;;;;;;6155910;23;20497;-62
2023/08/18 12:58:24;;;;;;;6.13;5.63;;;;;;;;;;6155931;23;20467;-62
2023/08/18 13:00:51;;;;;;;6.20;5.63;;;;;;;;;;6155549;23;20784;-62
2023/08/18 13:03:18;;;;;;;7.33;5.50;;;;;;;;;;6155899;23;20489;-62
2023/08/18 13:05:46;;;;;;;5.70;5.40;;;;;;;;;;6155847;23;20767;-62
2023/08/18 13:08:13;;;;;;;5.77;5.37;;;;;;;;;;6155656;23;20434;-62
2023/08/18 13:10:40;;;;;;;6.10;5.60;;;;;;;;;;6155699;23;20526;-62
2023/08/18 13:13:07;;;;;;;5.73;5.20;;;;;;;;;;6155790;23;20490;-62
2023/08/18 13:15:34;;;;;;;5.77;5.47;;;;;;;;;;6155814;23;20482;-62
2023/08/18 13:18:01;;;;;;;5.47;5.17;;;;;;;;;;6155898;23;20403;-62
2023/08/18 13:20:28;;;;;;;6.27;4.97;;;;;;;;;;6157579;23;20442;-62
2023/08/18 13:22:57;;;;;;;5.20;4.90;;;;;;;;;;6157637;23;20429;-62
2023/08/18 13:25:31;;;;;;;6.20;5.70;;;;;;;;;;6157475;23;20403;-62
2023/08/18 13:27:59;;;;;;;5.60;5.30;;;;;;;;;;6167446;23;20399;-62
2023/08/18 13:30:29;;;;;;;5.10;4.80;;;;;;;;;;6157489;23;20445;-62
2023/08/18 13:32:56;;;;;;;5.87;4.93;;;;;;;;;;6157495;23;20406;-63
2023/08/18 13:35:23;;;;;;;6.23;5.77;;;;;;;;;;6157762;23;20445;-62
2023/08/18 13:37:49;;;;;;;5.10;4.70;;;;;;;;;;6157686;23;20502;-62
2023/08/18 13:40:18;;;;;;;5.00;4.70;;;;;;;;;;6157633;23;20486;-62
2023/08/18 13:42:44;;;;;;;5.90;5.60;;;;;;;;;;6157454;23;20501;-62
2023/08/18 13:45:11;;;;;;;5.60;5.20;;;;;;;;;;6157642;23;20449;-62
2023/08/18 13:47:38;;;;;;;5.73;5.23;;;;;;;;;;6156924;23;20965;-62
2023/08/18 13:50:05;;;;;;;5.10;4.90;;;;;;;;;;6156748;23;20521;-62
2023/08/18 13:52:32;;;;;;;5.37;4.80;;;;;;;;;;6157444;23;20529;-62
2023/08/18 13:54:59;;;;;;;5.73;5.17;;;;;;;;;;6157548;23;20493;-62
2023/08/18 13:57:27;;;;;;;5.80;5.23;;;;;;;;;;6157356;23;20490;-62
2023/08/18 13:59:54;;;;;;;5.27;4.87;;;;;;;;;;6157246;23;20441;-62
2023/08/18 14:02:21;;;;;;;5.38;5.07;;;;;;;;;;6156624;23;20492;-63
2023/08/18 14:04:48;;;;;;;4.97;4.77;;;;;;;;;;6157057;23;20206;-62
2023/08/18 14:07:15;;;;;;;6.73;5.20;;;;;;;;;;6157121;23;20490;-62
2023/08/18 14:09:42;;;;;;;5.43;5.03;;;;;;;;;;6157389;23;20458;-62
2023/08/18 14:12:09;;;;;;;5.10;4.90;;;;;;;;;;6157240;23;20517;-62
2023/08/18 14:14:37;;;;;;;5.53;5.20;;;;;;;;;;6157281;23;20438;-63
2023/08/18 14:17:07;;;;;;;5.30;4.90;;;;;;;;;;6157262;23;20407;-62
2023/08/18 14:19:34;;;;;;;6.00;5.60;;;;;;;;;;6167046;23;20395;-62
2023/08/18 14:22:01;;;;;;;5.63;5.13;;;;;;;;;;6156894;23;20982;-62
2023/08/18 14:24:28;;;;;;;5.27;4.90;;;;;;;;;;6157299;23;20801;-62
2023/08/18 14:26:56;;;;;;;5.73;5.43;;;;;;;;;;6157233;23;20441;-63
2023/08/18 14:29:24;;;;;;;5.90;5.50;;;;;;;;;;6157353;23;20763;-63
2023/08/18 14:31:52;;;;;;;5.90;5.40;;;;;;;;;;6156538;23;20525;-63
2023/08/18 14:34:20;;;;;;;5.63;5.20;;;;;;;;;;6157256;23;20413;-63
2023/08/18 14:36:47;;;;;;;5.80;5.30;;;;;;;;;;6156993;23;20507;-62
2023/08/18 14:39:15;;;;;;;5.90;5.60;;;;;;;;;;6157377;23;20478;-62
2023/08/18 14:41:42;;;;;;;5.80;5.23;;;;;;;;;;6156935;23;20438;-62
2023/08/18 14:44:09;;;;;;;6.00;5.50;;;;;;;;;;6157102;23;20514;-62
2023/08/18 14:46:36;;;;;;;5.53;5.20;;;;;;;;;;6156935;23;20486;-62